Time;durP1;ratioP1;P1;durP2;ratioP2;P2;SDS_P1;SDS_P2;PMS_P1;PMS_P2;Temp;Humidity;BMP_temperature;BMP_pressure;BME280_temperature;BME280_humidity;BME280_pressure;Samples;Min_cycle;Max_cycle;Signal;HPM_P1;HPM_P2
2023/11/10 00:07:01;;;;;;;0.00;0.00;;;;;;;9.61;71.59;99605.94;15661626;28;19994;-49
2023/11/10 00:14:36;;;;;;;;;;;;;;;9.57;71.63;99620.84;15675064;28;20039;-49
2023/11/10 00:22:09;;;;;;;0.00;0.00;;;;;;;9.62;71.53;99621.78;15718788;28;20274;-51
2023/11/10 00:29:46;;;;;;;0.00;0.00;;;;;;;9.65;71.57;99599.06;15719594;28;20147;-49
2023/11/10 00:37:19;;;;;;;0.17;0.13;;;;;;;9.25;72.91;99594.34;15709775;28;20101;-49
2023/11/10 00:44:55;;;;;;;1.00;0.47;;;;;;;9.14;73.31;99590.59;15693403;28;20510;-52
2023/11/10 00:52:29;;;;;;;0.00;0.00;;;;;;;9.30;72.12;99607.06;15706090;28;20152;-48
2023/11/10 01:00:11;;;;;;;0.22;0.22;;;;;;;9.20;71.96;99591.56;15709556;28;20396;-45
2023/11/10 01:07:45;;;;;;;0.07;0.07;;;;;;;8.39;74.99;99580.31;15726072;28;20049;-46
2023/11/10 01:15:20;;;;;;;0.50;0.43;;;;;;;8.94;73.04;99598.09;15721237;28;20064;-50
2023/11/10 01:22:57;;;;;;;0.00;0.00;;;;;;;8.80;73.39;99585.94;15697869;28;20049;-47
2023/11/10 01:30:34;;;;;;;0.00;0.00;;;;;;;8.60;73.41;99589.69;15689240;28;20319;-47
2023/11/10 01:38:11;;;;;;;0.00;0.00;;;;;;;8.51;73.56;99577.69;15686329;28;20088;-47
2023/11/10 01:45:45;;;;;;;0.05;0.05;;;;;;;8.40;73.39;99560.53;15702411;28;20098;-47
2023/11/10 01:53:19;;;;;;;0.10;0.10;;;;;;;8.49;72.95;99563.72;15702822;28;20432;-49
2023/11/10 02:00:54;;;;;;;0.00;0.00;;;;;;;8.43;72.32;99554.72;15724982;28;20081;-55
2023/11/10 02:08:27;;;;;;;0.00;0.00;;;;;;;8.41;72.06;99564.84;15703339;28;20041;-47
2023/11/10 02:16:02;;;;;;;0.03;0.03;;;;;;;8.06;72.65;99547.75;15717031;28;20025;-48
2023/11/10 02:23:38;;;;;;;0.00;0.00;;;;;;;8.24;72.48;99542.41;15707302;28;20045;-53
2023/11/10 02:31:17;;;;;;;0.00;0.00;;;;;;;8.68;70.08;99533.22;15721077;28;20037;-48
2023/11/10 02:38:51;;;;;;;0.00;0.00;;;;;;;8.84;69.37;99537.09;15688516;28;20049;-51
2023/11/10 02:46:25;;;;;;;0.13;0.13;;;;;;;8.58;69.44;99514.25;15704334;28;20123;-47
2023/11/10 02:53:58;;;;;;;0.10;0.10;;;;;;;8.43;70.44;99505.78;15709055;28;20780;-51
2023/11/10 03:01:33;;;;;;;0.00;0.00;;;;;;;8.79;68.47;99514.75;15722659;28;20040;-48
2023/11/10 03:09:07;;;;;;;0.00;0.00;;;;;;;8.75;68.44;99497.53;15728553;28;20036;-53
2023/11/10 03:16:42;;;;;;;0.00;0.00;;;;;;;8.72;69.08;99496.13;15728548;28;20041;-50
2023/11/10 03:24:17;;;;;;;0.00;0.00;;;;;;;8.90;68.30;99495.22;15717957;28;20054;-52
2023/11/10 03:31:52;;;;;;;0.08;0.08;;;;;;;8.71;69.21;99512.41;15720319;28;20127;-53
2023/11/10 03:39:25;;;;;;;0.00;0.00;;;;;;;8.75;69.34;99505.56;15739457;28;20071;-49
2023/11/10 03:47:01;;;;;;;0.52;0.10;;;;;;;8.53;70.18;99507.91;15738763;28;20055;-52
2023/11/10 03:54:35;;;;;;;0.00;0.00;;;;;;;8.55;70.17;99509.34;15737821;28;20482;-51
2023/11/10 04:02:13;;;;;;;0.00;0.00;;;;;;;8.71;70.21;99505.19;15737780;28;20416;-50
2023/11/10 04:09:46;;;;;;;0.00;0.00;;;;;;;8.52;70.71;99496.41;15725855;28;20048;-50
2023/11/10 04:17:21;;;;;;;0.28;0.28;;;;;;;8.62;70.85;99493.19;15722234;28;20415;-48
2023/11/10 04:24:55;;;;;;;0.00;0.00;;;;;;;8.80;69.76;99493.13;15735715;28;20488;-51
2023/11/10 04:32:30;;;;;;;0.05;0.05;;;;;;;8.64;71.23;99489.25;15722733;28;20143;-47
2023/11/10 04:40:07;;;;;;;0.00;0.00;;;;;;;8.84;70.81;99488.94;15734692;28;20528;-45
2023/11/10 04:47:49;;;;;;;0.00;0.00;;;;;;;9.08;69.17;99454.19;15734752;28;20041;-54
2023/11/10 04:55:23;;;;;;;0.15;0.15;;;;;;;9.22;69.49;99498.41;15734477;28;20204;-48
2023/11/10 05:03:02;;;;;;;0.00;0.00;;;;;;;8.90;70.55;99509.41;15734180;28;20122;-51
2023/11/10 05:10:36;;;;;;;1.50;0.68;;;;;;;9.33;69.07;99508.34;15733043;28;20059;-49
2023/11/10 05:18:12;;;;;;;0.00;0.00;;;;;;;8.99;69.72;99504.56;15730402;28;20044;-51
2023/11/10 05:25:45;;;;;;;0.00;0.00;;;;;;;9.13;69.58;99526.56;15732560;28;20132;-45
2023/11/10 05:33:21;;;;;;;0.00;0.00;;;;;;;8.85;70.27;99519.19;15732724;28;20067;-51
2023/11/10 05:40:54;;;;;;;0.00;0.00;;;;;;;8.84;70.52;99518.38;15732056;28;20076;-46
2023/11/10 05:48:30;;;;;;;0.00;0.00;;;;;;;8.89;70.60;99539.09;15717217;28;20033;-52
2023/11/10 05:56:05;;;;;;;0.10;0.10;;;;;;;8.85;71.01;99545.94;15743060;23;20439;-47
2023/11/10 06:03:41;;;;;;;0.00;0.00;;;;;;;8.69;71.46;99550.91;15723262;28;20124;-53
2023/11/10 06:11:20;;;;;;;0.00;0.00;;;;;;;8.80;71.32;99562.69;15741353;28;20040;-48
2023/11/10 06:18:55;;;;;;;0.00;0.00;;;;;;;9.04;70.75;99562.75;15734568;28;20070;-52
2023/11/10 06:26:29;;;;;;;10.95;1.08;;;;;;;8.92;71.28;99557.38;15735136;28;20044;-48
2023/11/10 06:34:04;;;;;;;;;;;;;;;8.95;70.89;99564.94;15739278;28;20037;-50
2023/11/10 06:41:38;;;;;;;0.00;0.00;;;;;;;8.94;70.90;99561.44;15733695;28;19920;-47
2023/11/10 06:49:12;;;;;;;0.00;0.00;;;;;;;8.98;70.81;99567.16;15716028;28;20072;-49
2023/11/10 06:56:46;;;;;;;0.00;0.00;;;;;;;9.17;70.28;99568.72;15734362;28;20052;-48
2023/11/10 07:04:24;;;;;;;;;;;;;;;9.14;70.35;99568.38;15746474;28;20094;-48
2023/11/10 07:11:58;;;;;;;0.00;0.00;;;;;;;9.29;69.89;99575.97;15727810;28;19960;-46
2023/11/10 07:19:33;;;;;;;0.10;0.10;;;;;;;9.19;70.01;99579.22;15745207;28;20075;-47
2023/11/10 07:27:07;;;;;;;0.00;0.00;;;;;;;9.44;69.28;99584.38;15744512;28;20079;-50
2023/11/10 07:34:45;;;;;;;0.00;0.00;;;;;;;9.23;70.30;99591.06;15726220;28;20507;-52
2023/11/10 07:42:20;;;;;;;0.00;0.00;;;;;;;9.34;69.60;99587.63;15726026;28;20056;-51
2023/11/10 07:49:55;;;;;;;0.20;0.20;;;;;;;9.33;69.34;99577.16;15748925;28;20531;-48
2023/11/10 07:57:28;;;;;;;0.00;0.00;;;;;;;9.79;67.81;99579.03;15725282;28;20473;-48
2023/11/10 08:05:03;;;;;;;;;;;;;;;10.54;66.11;99575.56;15742992;28;20044;-50
2023/11/10 08:12:39;;;;;;;0.00;0.00;;;;;;;10.86;65.01;99583.94;15741582;28;20364;-49
2023/11/10 08:20:14;;;;;;;0.00;0.00;;;;;;;10.84;64.64;99583.38;15723964;28;20059;-47
2023/11/10 08:27:47;;;;;;;0.00;0.00;;;;;;;10.20;66.17;99582.59;15724329;28;20501;-52
2023/11/10 08:35:22;;;;;;;0.00;0.00;;;;;;;10.73;64.29;99595.78;15742059;28;20139;-44
2023/11/10 08:43:03;;;;;;;0.00;0.00;;;;;;;10.53;64.74;99605.28;15740635;28;20063;-54
2023/11/10 08:50:40;;;;;;;0.00;0.00;;;;;;;10.66;64.77;99607.72;15741245;28;20048;-47
2023/11/10 08:58:16;;;;;;;0.00;0.00;;;;;;;11.33;62.58;99601.66;15739902;28;20132;-48
2023/11/10 09:05:51;;;;;;;0.00;0.00;;;;;;;11.56;61.47;99593.44;15739419;28;20041;-49
2023/11/10 09:13:24;;;;;;;0.15;0.13;;;;;;;11.79;60.75;99597.03;15739331;28;20052;-44
2023/11/10 09:20:59;;;;;;;0.13;0.13;;;;;;;11.30;62.45;99605.66;15738312;28;20498;-47
2023/11/10 09:28:32;;;;;;;0.00;0.00;;;;;;;11.27;62.26;99603.47;15738518;28;20045;-48
2023/11/10 09:36:08;;;;;;;0.00;0.00;;;;;;;11.47;62.57;99586.84;15739829;28;20082;-51
2023/11/10 09:43:45;;;;;;;0.00;0.00;;;;;;;11.19;62.98;99585.03;15737951;28;20585;-47
2023/11/10 09:51:25;;;;;;;0.00;0.00;;;;;;;11.60;62.78;99588.41;15720295;28;20032;-48
2023/11/10 09:59:02;;;;;;;0.03;0.03;;;;;;;11.61;62.47;99572.06;15737458;28;20052;-49
2023/11/10 10:06:39;;;;;;;0.00;0.00;;;;;;;11.45;62.64;99575.56;15736134;28;20117;-51
2023/11/10 10:14:13;;;;;;;0.32;0.32;;;;;;;10.95;63.78;99587.03;15735844;28;20040;-52
2023/11/10 10:21:47;;;;;;;0.00;0.00;;;;;;;11.36;62.33;99575.13;15736262;28;20080;-48
2023/11/10 10:29:21;;;;;;;0.10;0.10;;;;;;;11.29;62.10;99573.69;15736021;28;20037;-50
2023/11/10 10:36:57;;;;;;;0.60;0.57;;;;;;;11.14;62.73;99587.66;15737248;28;20477;-49
2023/11/10 10:44:31;;;;;;;0.00;0.00;;;;;;;11.31;61.92;99575.06;15719535;28;20291;-48
2023/11/10 10:52:07;;;;;;;0.82;0.55;;;;;;;11.45;61.41;99562.94;15731256;28;20044;-45
2023/11/10 10:59:42;;;;;;;0.00;0.00;;;;;;;11.47;60.79;99555.44;15737135;28;20497;-46
2023/11/10 11:07:42;;;;;;;0.00;0.00;;;;;;;11.08;62.01;99557.22;15736763;28;20123;-53
2023/11/10 11:15:24;;;;;;;0.43;0.35;;;;;;;11.11;61.99;99551.38;15728572;28;20036;-49
2023/11/10 11:23:00;;;;;;;0.00;0.00;;;;;;;11.13;63.05;99549.25;15734474;28;20569;-52
2023/11/10 11:30:36;;;;;;;0.00;0.00;;;;;;;11.58;62.17;99534.09;15736394;28;20071;-52
2023/11/10 11:38:11;;;;;;;0.00;0.00;;;;;;;11.44;62.37;99541.69;15735281;28;20136;-47
2023/11/10 11:45:44;;;;;;;0.00;0.00;;;;;;;12.41;60.23;99530.38;15738672;28;20048;-51
2023/11/10 11:53:20;;;;;;;0.00;0.00;;;;;;;12.21;59.74;99536.31;15746321;28;20041;-50
2023/11/10 12:00:54;;;;;;;0.00;0.00;;;;;;;12.16;59.09;99513.94;15745716;28;20128;-53
2023/11/10 12:08:28;;;;;;;0.00;0.00;;;;;;;11.61;61.43;99529.06;15727565;28;20055;-53
2023/11/10 12:16:02;;;;;;;0.00;0.00;;;;;;;10.94;62.72;99542.47;15746156;28;20087;-52
2023/11/10 12:23:37;;;;;;;0.28;0.28;;;;;;;10.74;64.37;99540.25;15744103;28;20048;-50
2023/11/10 12:31:11;;;;;;;0.00;0.00;;;;;;;11.51;62.22;99545.00;15744359;28;20040;-51
2023/11/10 12:38:50;;;;;;;0.00;0.00;;;;;;;10.88;63.33;99552.31;15743839;28;20071;-54
2023/11/10 12:46:24;;;;;;;0.00;0.00;;;;;;;11.15;63.27;99536.41;15742574;28;20032;-54
2023/11/10 12:54:06;;;;;;;0.10;0.10;;;;;;;11.75;61.85;99541.09;15740994;28;20049;-53
2023/11/10 13:01:42;;;;;;;0.00;0.00;;;;;;;11.79;60.21;99527.13;15742058;28;20068;-49
2023/11/10 13:09:18;;;;;;;1.45;0.47;;;;;;;11.79;60.03;99540.56;15723353;28;20078;-56
2023/11/10 13:16:52;;;;;;;0.25;0.25;;;;;;;11.41;61.13;99540.28;15741365;28;20396;-50
2023/11/10 13:24:29;;;;;;;0.00;0.00;;;;;;;11.08;61.63;99538.41;15740538;28;20051;-52
2023/11/10 13:32:03;;;;;;;0.00;0.00;;;;;;;11.31;61.47;99542.00;15739864;28;20059;-53
2023/11/10 13:39:40;;;;;;;0.00;0.00;;;;;;;11.52;61.16;99545.81;15738943;28;20045;-53
2023/11/10 13:47:13;;;;;;;0.00;0.00;;;;;;;11.29;62.32;99547.63;15738934;28;20051;-52
2023/11/10 13:54:48;;;;;;;0.30;0.10;;;;;;;11.45;62.12;99548.69;15719907;28;20058;-57
2023/11/10 14:02:22;;;;;;;0.00;0.00;;;;;;;11.04;63.38;99557.94;15737663;28;20135;-53
2023/11/10 14:09:57;;;;;;;0.00;0.00;;;;;;;11.45;62.39;99554.06;15737151;28;20501;-51
2023/11/10 14:17:30;;;;;;;13.90;1.35;;;;;;;11.19;63.23;99532.16;15718606;28;20098;-54
2023/11/10 14:25:07;;;;;;;;;;;;;;;11.51;63.03;99561.13;15733304;28;20051;-57
2023/11/10 14:32:43;;;;;;;0.00;0.00;;;;;;;11.40;63.27;99562.03;15731899;28;19928;-52
2023/11/10 14:40:23;;;;;;;0.00;0.00;;;;;;;11.62;62.30;99573.69;15735812;28;20109;-57
2023/11/10 14:47:57;;;;;;;0.00;0.00;;;;;;;11.23;62.74;99578.13;15737152;28;20529;-52
2023/11/10 14:55:32;;;;;;;0.00;0.00;;;;;;;11.20;62.07;99568.72;15736507;28;20540;-52
2023/11/10 15:03:05;;;;;;;0.00;0.00;;;;;;;10.91;61.65;99581.38;15736271;28;20048;-54
2023/11/10 15:10:42;;;;;;;0.00;0.00;;;;;;;10.25;63.76;99587.28;15736082;28;20071;-54
2023/11/10 15:18:19;;;;;;;0.00;0.00;;;;;;;10.97;61.71;99585.75;15736620;28;20090;-52
2023/11/10 15:25:54;;;;;;;0.00;0.00;;;;;;;10.73;61.55;99595.78;15746728;28;20056;-53
2023/11/10 15:33:34;;;;;;;0.00;0.00;;;;;;;10.76;60.90;99599.03;15748527;28;20049;-52
2023/11/10 15:41:10;;;;;;;0.00;0.00;;;;;;;10.98;61.03;99603.50;15746945;28;20033;-51
2023/11/10 15:48:46;;;;;;;0.00;0.00;;;;;;;10.36;63.56;99610.59;15745569;28;20074;-49
2023/11/10 15:56:20;;;;;;;0.00;0.00;;;;;;;10.88;62.57;99607.88;15745126;28;20040;-51
2023/11/10 16:03:55;;;;;;;0.00;0.00;;;;;;;10.93;62.18;99611.47;15745286;28;20487;-50
2023/11/10 16:11:31;;;;;;;0.15;0.15;;;;;;;10.52;63.86;99617.09;15740767;28;20400;-52
2023/11/10 16:19:10;;;;;;;0.00;0.00;;;;;;;10.44;63.90;99619.09;15743679;28;20494;-50
2023/11/10 16:26:46;;;;;;;0.00;0.00;;;;;;;10.47;62.91;99620.47;15725148;28;20074;-49
2023/11/10 16:34:20;;;;;;;0.00;0.00;;;;;;;10.36;63.87;99622.13;15717481;28;20049;-53
2023/11/10 16:41:55;;;;;;;0.00;0.00;;;;;;;10.44;63.74;99635.19;15739880;28;20134;-50
2023/11/10 16:49:29;;;;;;;0.00;0.00;;;;;;;10.00;65.21;99633.09;15745147;28;20047;-54
2023/11/10 16:57:05;;;;;;;0.00;0.00;;;;;;;10.31;64.35;99638.13;15741217;28;20102;-54
2023/11/10 17:04:39;;;;;;;0.00;0.00;;;;;;;10.27;63.83;99628.91;15740738;28;20040;-52
2023/11/10 17:12:14;;;;;;;0.00;0.00;;;;;;;10.20;63.98;99639.72;15739310;28;20044;-51
2023/11/10 17:19:48;;;;;;;0.00;0.00;;;;;;;10.38;63.11;99635.31;15738786;28;20072;-51
2023/11/10 17:27:23;;;;;;;;;;;;;;;9.90;64.37;99642.53;15740425;28;20501;-50
2023/11/10 17:34:57;;;;;;;5.28;0.52;;;;;;;9.94;64.01;99642.91;15738405;28;19927;-53
2023/11/10 17:42:33;;;;;;;0.00;0.00;;;;;;;9.67;63.83;99647.88;15718331;28;20390;-50
2023/11/10 17:50:08;;;;;;;0.00;0.00;;;;;;;9.36;63.62;99652.47;15742275;23;20061;-52
2023/11/10 17:57:42;;;;;;;1.15;1.08;;;;;;;9.56;63.54;99645.97;15734276;28;20400;-52
2023/11/10 18:05:17;;;;;;;0.00;0.00;;;;;;;9.18;64.31;99631.91;15714175;28;20044;-52
2023/11/10 18:12:52;;;;;;;0.65;0.65;;;;;;;9.64;63.33;99640.28;15721303;28;20163;-54
2023/11/10 18:20:27;;;;;;;0.20;0.10;;;;;;;9.26;63.56;99641.50;15722069;28;20064;-54
2023/11/10 18:28:01;;;;;;;;;;;;;;;8.97;64.58;99636.97;15737038;28;20493;-50
2023/11/10 18:35:35;;;;;;;0.00;0.00;;;;;;;9.01;64.02;99636.31;15716534;28;19943;-57
2023/11/10 18:43:10;;;;;;;0.00;0.00;;;;;;;8.90;63.78;99631.69;15724702;28;20488;-55
2023/11/10 18:50:44;;;;;;;0.00;0.00;;;;;;;8.65;64.38;99637.19;15723671;28;20045;-57
2023/11/10 18:58:22;;;;;;;0.35;0.10;;;;;;;8.51;64.58;99646.41;15734991;28;20049;-51
2023/11/10 19:05:56;;;;;;;0.00;0.00;;;;;;;7.83;66.21;99641.91;15728199;28;20041;-53
2023/11/10 19:13:32;;;;;;;0.30;0.30;;;;;;;8.60;63.41;99645.88;15742072;28;20044;-52
2023/11/10 19:21:05;;;;;;;0.38;0.22;;;;;;;8.32;65.38;99641.03;15737512;28;20041;-50
2023/11/10 19:28:41;;;;;;;0.20;0.17;;;;;;;7.97;66.73;99640.75;15739537;28;20493;-51
2023/11/10 19:36:21;;;;;;;0.00;0.00;;;;;;;8.19;66.16;99643.81;15749551;28;20072;-56
2023/11/10 19:43:59;;;;;;;0.00;0.00;;;;;;;7.90;67.91;99645.34;15735939;28;20440;-55
2023/11/10 19:51:42;;;;;;;0.00;0.00;;;;;;;7.49;68.53;99628.03;15749523;28;20101;-50
2023/11/10 19:59:16;;;;;;;0.20;0.20;;;;;;;7.37;69.37;99630.59;15747911;28;20496;-51
2023/11/10 20:06:52;;;;;;;0.00;0.00;;;;;;;7.39;69.98;99641.03;15728874;28;20424;-52
2023/11/10 20:14:28;;;;;;;0.43;0.43;;;;;;;7.52;70.11;99648.13;15679450;28;20041;-52
2023/11/10 20:22:01;;;;;;;0.15;0.15;;;;;;;7.28;70.83;99657.75;15733100;28;20501;-51
2023/11/10 20:29:37;;;;;;;0.13;0.13;;;;;;;7.50;70.16;99634.16;15746088;28;20507;-53
2023/11/10 20:37:11;;;;;;;0.70;0.57;;;;;;;7.16;71.79;99637.06;15722728;28;20531;-53
2023/11/10 20:44:46;;;;;;;0.00;0.00;;;;;;;6.97;72.80;99629.19;15723793;28;20049;-50
2023/11/10 20:52:20;;;;;;;0.00;0.00;;;;;;;7.46;70.82;99617.78;15716152;28;20094;-50
2023/11/10 20:59:55;;;;;;;0.52;0.22;;;;;;;7.55;70.64;99627.13;15715306;28;20096;-52
2023/11/10 21:07:29;;;;;;;0.15;0.15;;;;;;;7.56;70.47;99615.44;15731103;28;20045;-49
2023/11/10 21:15:06;;;;;;;0.00;0.00;;;;;;;7.48;70.28;99606.88;15722268;28;20053;-52
2023/11/10 21:22:39;;;;;;;0.55;0.40;;;;;;;7.46;70.26;99609.78;15719165;28;20497;-52
2023/11/10 21:30:13;;;;;;;0.00;0.00;;;;;;;7.04;71.44;99605.94;15715197;28;20044;-55
2023/11/10 21:37:47;;;;;;;3.15;0.55;;;;;;;7.25;70.52;99607.47;15727194;28;20059;-54
2023/11/10 21:45:25;;;;;;;0.00;0.00;;;;;;;7.06;70.71;99606.56;15718153;28;20128;-53
2023/11/10 21:52:58;;;;;;;0.03;0.03;;;;;;;6.41;73.54;99603.22;15719741;28;20048;-54
2023/11/10 22:00:34;;;;;;;0.00;0.00;;;;;;;6.30;73.62;99600.16;15706432;28;20037;-50
2023/11/10 22:08:08;;;;;;;0.00;0.00;;;;;;;6.44;72.54;99557.47;15732357;28;20071;-51
2023/11/10 22:15:44;;;;;;;2.40;1.17;;;;;;;6.36;72.64;99593.19;15718307;28;20051;-50
2023/11/10 22:23:17;;;;;;;0.20;0.20;;;;;;;6.62;72.00;99585.06;15715035;28;20049;-53
2023/11/10 22:30:52;;;;;;;0.52;0.20;;;;;;;6.77;70.80;99576.78;15696033;28;20548;-52
2023/11/10 22:38:25;;;;;;;0.25;0.25;;;;;;;6.82;70.69;99579.63;15700533;28;20163;-54
2023/11/10 22:46:01;;;;;;;0.00;0.00;;;;;;;6.81;70.52;99583.34;15726392;28;20048;-52
2023/11/10 22:53:35;;;;;;;0.00;0.00;;;;;;;6.68;70.90;99579.91;15720285;28;20052;-50
2023/11/10 23:01:10;;;;;;;;;;;;;;;6.20;72.84;99581.16;15716143;28;20052;-53
2023/11/10 23:08:44;;;;;;;0.00;0.00;;;;;;;6.32;71.74;99568.78;15705337;28;20462;-53
2023/11/10 23:16:21;;;;;;;0.00;0.00;;;;;;;5.99;73.50;99574.22;15717101;28;20040;-50
2023/11/10 23:23:55;;;;;;;0.00;0.00;;;;;;;5.92;73.47;99570.75;15717052;28;20126;-50
2023/11/10 23:31:30;;;;;;;0.00;0.00;;;;;;;6.13;72.50;99575.81;15704564;28;20479;-52
2023/11/10 23:39:04;;;;;;;0.00;0.00;;;;;;;5.73;74.42;99576.91;15718685;28;20040;-55
2023/11/10 23:46:38;;;;;;;;;;;;;;;6.02;73.03;99575.66;15714798;28;20044;-51
2023/11/10 23:54:12;;;;;;;0.00;0.00;;;;;;;5.95;72.89;99538.38;15731016;28;19924;-49
